sensor_id;sensor_type;location;lat;lon;timestamp;P1;durP1;ratioP1;P2;durP2;ratioP2
21979;SDS011;11154;48.558;9.234;2023-07-20T00:01:11;6.82;;;1.55;;
21979;SDS011;11154;48.558;9.234;2023-07-20T00:03:14;5.00;;;1.17;;
21979;SDS011;11154;48.558;9.234;2023-07-20T00:05:18;1.77;;;1.30;;
21979;SDS011;11154;48.558;9.234;2023-07-20T00:07:21;2.85;;;1.45;;
21979;SDS011;11154;48.558;9.234;2023-07-20T00:09:24;5.50;;;1.70;;
21979;SDS011;11154;48.558;9.234;2023-07-20T00:11:27;2.28;;;1.30;;
21979;SDS011;11154;48.558;9.234;2023-07-20T00:13:29;4.97;;;1.50;;
21979;SDS011;11154;48.558;9.234;2023-07-20T00:15:31;2.53;;;1.70;;
21979;SDS011;11154;48.558;9.234;2023-07-20T00:17:32;3.95;;;1.67;;
21979;SDS011;11154;48.558;9.234;2023-07-20T00:19:34;3.65;;;1.52;;
21979;SDS011;11154;48.558;9.234;2023-07-20T00:21:35;4.13;;;1.30;;
21979;SDS011;11154;48.558;9.234;2023-07-20T00:23:37;3.80;;;1.80;;
21979;SDS011;11154;48.558;9.234;2023-07-20T00:25:39;5.90;;;1.90;;
21979;SDS011;11154;48.558;9.234;2023-07-20T00:27:42;2.20;;;1.55;;
21979;SDS011;11154;48.558;9.234;2023-07-20T00:29:43;4.50;;;1.48;;
21979;SDS011;11154;48.558;9.234;2023-07-20T00:31:45;4.13;;;1.70;;
21979;SDS011;11154;48.558;9.234;2023-07-20T00:33:46;4.25;;;1.63;;
21979;SDS011;11154;48.558;9.234;2023-07-20T00:35:48;4.88;;;1.60;;
21979;SDS011;11154;48.558;9.234;2023-07-20T00:37:50;2.47;;;1.60;;
21979;SDS011;11154;48.558;9.234;2023-07-20T00:39:52;3.72;;;1.50;;
21979;SDS011;11154;48.558;9.234;2023-07-20T00:41:54;2.30;;;1.48;;
21979;SDS011;11154;48.558;9.234;2023-07-20T00:43:57;2.58;;;1.50;;
21979;SDS011;11154;48.558;9.234;2023-07-20T00:45:59;5.75;;;1.50;;
21979;SDS011;11154;48.558;9.234;2023-07-20T00:48:03;2.30;;;1.50;;
21979;SDS011;11154;48.558;9.234;2023-07-20T00:50:07;3.63;;;1.60;;
21979;SDS011;11154;48.558;9.234;2023-07-20T00:52:10;6.90;;;1.48;;
21979;SDS011;11154;48.558;9.234;2023-07-20T00:54:14;4.00;;;1.52;;
21979;SDS011;11154;48.558;9.234;2023-07-20T00:56:15;2.67;;;1.45;;
21979;SDS011;11154;48.558;9.234;2023-07-20T00:58:17;6.78;;;1.50;;
21979;SDS011;11154;48.558;9.234;2023-07-20T01:00:20;2.13;;;1.23;;
21979;SDS011;11154;48.558;9.234;2023-07-20T01:02:22;3.28;;;1.30;;
21979;SDS011;11154;48.558;9.234;2023-07-20T01:04:22;4.50;;;1.48;;
21979;SDS011;11154;48.558;9.234;2023-07-20T01:06:29;5.72;;;1.38;;
21979;SDS011;11154;48.558;9.234;2023-07-20T01:08:40;6.20;;;1.58;;
21979;SDS011;11154;48.558;9.234;2023-07-20T01:10:51;1.35;;;1.15;;
21979;SDS011;11154;48.558;9.234;2023-07-20T01:12:57;1.98;;;1.40;;
21979;SDS011;11154;48.558;9.234;2023-07-20T01:14:59;3.58;;;1.30;;
21979;SDS011;11154;48.558;9.234;2023-07-20T01:17:03;6.18;;;1.75;;
21979;SDS011;11154;48.558;9.234;2023-07-20T01:19:04;6.78;;;1.48;;
21979;SDS011;11154;48.558;9.234;2023-07-20T01:21:09;5.18;;;1.67;;
21979;SDS011;11154;48.558;9.234;2023-07-20T01:23:27;6.15;;;1.63;;
21979;SDS011;11154;48.558;9.234;2023-07-20T01:25:51;1.98;;;1.52;;
21979;SDS011;11154;48.558;9.234;2023-07-20T01:28:15;1.60;;;1.40;;
21979;SDS011;11154;48.558;9.234;2023-07-20T01:30:55;4.05;;;1.58;;
21979;SDS011;11154;48.558;9.234;2023-07-20T01:33:05;2.88;;;1.73;;
21979;SDS011;11154;48.558;9.234;2023-07-20T01:35:09;4.50;;;1.50;;
21979;SDS011;11154;48.558;9.234;2023-07-20T01:37:15;3.20;;;1.63;;
21979;SDS011;11154;48.558;9.234;2023-07-20T01:39:20;4.28;;;1.67;;
21979;SDS011;11154;48.558;9.234;2023-07-20T01:41:22;8.50;;;1.50;;
21979;SDS011;11154;48.558;9.234;2023-07-20T01:43:24;3.35;;;1.63;;
21979;SDS011;11154;48.558;9.234;2023-07-20T01:45:26;1.75;;;1.40;;
21979;SDS011;11154;48.558;9.234;2023-07-20T01:47:27;2.78;;;1.73;;
21979;SDS011;11154;48.558;9.234;2023-07-20T01:49:30;3.88;;;1.83;;
21979;SDS011;11154;48.558;9.234;2023-07-20T01:51:32;5.22;;;1.60;;
21979;SDS011;11154;48.558;9.234;2023-07-20T01:53:34;7.00;;;2.03;;
21979;SDS011;11154;48.558;9.234;2023-07-20T01:55:35;3.00;;;1.80;;
21979;SDS011;11154;48.558;9.234;2023-07-20T01:57:37;3.58;;;1.58;;
21979;SDS011;11154;48.558;9.234;2023-07-20T01:59:38;6.20;;;1.70;;
21979;SDS011;11154;48.558;9.234;2023-07-20T02:01:41;1.92;;;1.60;;
21979;SDS011;11154;48.558;9.234;2023-07-20T02:03:43;2.92;;;1.58;;
21979;SDS011;11154;48.558;9.234;2023-07-20T02:05:45;3.80;;;1.90;;
21979;SDS011;11154;48.558;9.234;2023-07-20T02:07:46;5.15;;;1.70;;
21979;SDS011;11154;48.558;9.234;2023-07-20T02:09:48;2.65;;;1.90;;
21979;SDS011;11154;48.558;9.234;2023-07-20T02:11:49;2.95;;;1.77;;
21979;SDS011;11154;48.558;9.234;2023-07-20T02:13:51;3.88;;;1.90;;
21979;SDS011;11154;48.558;9.234;2023-07-20T02:15:53;6.78;;;1.73;;
21979;SDS011;11154;48.558;9.234;2023-07-20T02:17:54;3.20;;;1.90;;
21979;SDS011;11154;48.558;9.234;2023-07-20T02:19:56;5.55;;;1.70;;
21979;SDS011;11154;48.558;9.234;2023-07-20T02:22:00;4.55;;;2.00;;
21979;SDS011;11154;48.558;9.234;2023-07-20T02:24:01;4.22;;;1.90;;
21979;SDS011;11154;48.558;9.234;2023-07-20T02:26:03;2.33;;;1.75;;
21979;SDS011;11154;48.558;9.234;2023-07-20T02:28:04;4.10;;;1.67;;
21979;SDS011;11154;48.558;9.234;2023-07-20T02:30:08;2.83;;;1.85;;
21979;SDS011;11154;48.558;9.234;2023-07-20T02:32:10;4.68;;;1.92;;
21979;SDS011;11154;48.558;9.234;2023-07-20T02:34:12;3.35;;;1.92;;
21979;SDS011;11154;48.558;9.234;2023-07-20T02:36:13;2.53;;;1.67;;
21979;SDS011;11154;48.558;9.234;2023-07-20T02:38:18;4.72;;;2.08;;
21979;SDS011;11154;48.558;9.234;2023-07-20T02:40:19;4.00;;;1.75;;
21979;SDS011;11154;48.558;9.234;2023-07-20T02:42:20;3.67;;;1.70;;
21979;SDS011;11154;48.558;9.234;2023-07-20T02:44:22;3.47;;;1.70;;
21979;SDS011;11154;48.558;9.234;2023-07-20T02:46:23;2.97;;;1.73;;
21979;SDS011;11154;48.558;9.234;2023-07-20T02:48:25;4.70;;;1.88;;
21979;SDS011;11154;48.558;9.234;2023-07-20T02:50:27;2.78;;;1.70;;
21979;SDS011;11154;48.558;9.234;2023-07-20T02:52:28;2.83;;;1.90;;
21979;SDS011;11154;48.558;9.234;2023-07-20T02:54:31;3.85;;;1.70;;
21979;SDS011;11154;48.558;9.234;2023-07-20T02:56:33;2.45;;;2.00;;
21979;SDS011;11154;48.558;9.234;2023-07-20T02:58:33;2.20;;;1.73;;
21979;SDS011;11154;48.558;9.234;2023-07-20T03:00:37;6.40;;;1.80;;
21979;SDS011;11154;48.558;9.234;2023-07-20T03:02:38;3.05;;;1.77;;
21979;SDS011;11154;48.558;9.234;2023-07-20T03:04:40;3.08;;;2.05;;
21979;SDS011;11154;48.558;9.234;2023-07-20T03:06:40;6.47;;;2.00;;
21979;SDS011;11154;48.558;9.234;2023-07-20T03:08:42;4.85;;;1.77;;
21979;SDS011;11154;48.558;9.234;2023-07-20T03:10:48;1.90;;;1.40;;
21979;SDS011;11154;48.558;9.234;2023-07-20T03:12:50;3.40;;;1.90;;
21979;SDS011;11154;48.558;9.234;2023-07-20T03:14:51;3.25;;;2.00;;
21979;SDS011;11154;48.558;9.234;2023-07-20T03:16:54;2.60;;;1.70;;
21979;SDS011;11154;48.558;9.234;2023-07-20T03:18:55;5.18;;;1.95;;
21979;SDS011;11154;48.558;9.234;2023-07-20T03:20:57;5.25;;;1.90;;
21979;SDS011;11154;48.558;9.234;2023-07-20T03:22:57;4.28;;;1.73;;
21979;SDS011;11154;48.558;9.234;2023-07-20T03:24:59;5.35;;;2.03;;
21979;SDS011;11154;48.558;9.234;2023-07-20T03:27:02;3.92;;;2.15;;
21979;SDS011;11154;48.558;9.234;2023-07-20T03:29:03;4.88;;;2.00;;
21979;SDS011;11154;48.558;9.234;2023-07-20T03:31:06;3.05;;;1.85;;
21979;SDS011;11154;48.558;9.234;2023-07-20T03:33:08;3.83;;;1.88;;
21979;SDS011;11154;48.558;9.234;2023-07-20T03:35:08;2.05;;;1.80;;
21979;SDS011;11154;48.558;9.234;2023-07-20T03:37:10;4.80;;;2.33;;
21979;SDS011;11154;48.558;9.234;2023-07-20T03:39:12;6.88;;;3.47;;
21979;SDS011;11154;48.558;9.234;2023-07-20T03:41:13;6.35;;;3.72;;
21979;SDS011;11154;48.558;9.234;2023-07-20T03:43:17;11.45;;;6.53;;
21979;SDS011;11154;48.558;9.234;2023-07-20T03:45:19;2.72;;;1.90;;
21979;SDS011;11154;48.558;9.234;2023-07-20T03:47:24;3.00;;;1.70;;
21979;SDS011;11154;48.558;9.234;2023-07-20T03:49:25;3.08;;;1.92;;
21979;SDS011;11154;48.558;9.234;2023-07-20T03:51:27;3.17;;;1.85;;
21979;SDS011;11154;48.558;9.234;2023-07-20T03:53:29;3.55;;;1.90;;
21979;SDS011;11154;48.558;9.234;2023-07-20T03:55:30;7.13;;;2.35;;
21979;SDS011;11154;48.558;9.234;2023-07-20T03:57:31;3.92;;;2.03;;
21979;SDS011;11154;48.558;9.234;2023-07-20T03:59:34;4.97;;;1.90;;
21979;SDS011;11154;48.558;9.234;2023-07-20T04:01:36;4.38;;;1.95;;
21979;SDS011;11154;48.558;9.234;2023-07-20T04:03:40;2.97;;;1.73;;
21979;SDS011;11154;48.558;9.234;2023-07-20T04:05:41;2.38;;;1.80;;
21979;SDS011;11154;48.558;9.234;2023-07-20T04:07:43;5.13;;;1.95;;
21979;SDS011;11154;48.558;9.234;2023-07-20T04:09:43;3.05;;;1.92;;
21979;SDS011;11154;48.558;9.234;2023-07-20T04:11:45;2.35;;;1.80;;
21979;SDS011;11154;48.558;9.234;2023-07-20T04:13:47;4.38;;;2.00;;
21979;SDS011;11154;48.558;9.234;2023-07-20T04:15:49;3.03;;;1.65;;
21979;SDS011;11154;48.558;9.234;2023-07-20T04:17:51;4.85;;;1.92;;
21979;SDS011;11154;48.558;9.234;2023-07-20T04:19:53;3.33;;;1.70;;
21979;SDS011;11154;48.558;9.234;2023-07-20T04:21:54;3.13;;;1.80;;
21979;SDS011;11154;48.558;9.234;2023-07-20T04:23:56;4.38;;;1.85;;
21979;SDS011;11154;48.558;9.234;2023-07-20T04:25:57;4.10;;;1.80;;
21979;SDS011;11154;48.558;9.234;2023-07-20T04:27:59;2.58;;;1.90;;
21979;SDS011;11154;48.558;9.234;2023-07-20T04:30:00;2.40;;;1.70;;
21979;SDS011;11154;48.558;9.234;2023-07-20T04:32:04;5.90;;;1.90;;
21979;SDS011;11154;48.558;9.234;2023-07-20T04:34:06;3.05;;;1.58;;
21979;SDS011;11154;48.558;9.234;2023-07-20T04:36:07;2.38;;;1.83;;
21979;SDS011;11154;48.558;9.234;2023-07-20T04:38:09;2.70;;;1.70;;
21979;SDS011;11154;48.558;9.234;2023-07-20T04:40:10;3.15;;;2.00;;
21979;SDS011;11154;48.558;9.234;2023-07-20T04:42:12;3.03;;;1.95;;
21979;SDS011;11154;48.558;9.234;2023-07-20T04:44:14;3.63;;;1.92;;
21979;SDS011;11154;48.558;9.234;2023-07-20T04:46:15;2.83;;;1.65;;
21979;SDS011;11154;48.558;9.234;2023-07-20T04:48:20;3.22;;;1.80;;
21979;SDS011;11154;48.558;9.234;2023-07-20T04:50:21;3.92;;;2.00;;
21979;SDS011;11154;48.558;9.234;2023-07-20T04:52:24;3.92;;;1.70;;
21979;SDS011;11154;48.558;9.234;2023-07-20T04:54:25;3.33;;;1.88;;
21979;SDS011;11154;48.558;9.234;2023-07-20T04:56:28;4.60;;;2.20;;
21979;SDS011;11154;48.558;9.234;2023-07-20T04:58:29;3.55;;;2.03;;
21979;SDS011;11154;48.558;9.234;2023-07-20T05:00:31;3.38;;;1.90;;
21979;SDS011;11154;48.558;9.234;2023-07-20T05:02:33;3.65;;;2.40;;
21979;SDS011;11154;48.558;9.234;2023-07-20T05:04:36;3.63;;;1.90;;
21979;SDS011;11154;48.558;9.234;2023-07-20T05:06:37;4.45;;;1.90;;
21979;SDS011;11154;48.558;9.234;2023-07-20T05:08:39;2.83;;;1.83;;
21979;SDS011;11154;48.558;9.234;2023-07-20T05:10:40;4.03;;;1.73;;
21979;SDS011;11154;48.558;9.234;2023-07-20T05:12:42;5.07;;;2.30;;
21979;SDS011;11154;48.558;9.234;2023-07-20T05:14:44;2.45;;;1.92;;
21979;SDS011;11154;48.558;9.234;2023-07-20T05:16:45;3.30;;;2.42;;
21979;SDS011;11154;48.558;9.234;2023-07-20T05:18:47;6.03;;;2.25;;
21979;SDS011;11154;48.558;9.234;2023-07-20T05:20:48;4.30;;;2.25;;
21979;SDS011;11154;48.558;9.234;2023-07-20T05:22:50;3.65;;;2.08;;
21979;SDS011;11154;48.558;9.234;2023-07-20T05:24:52;3.40;;;2.22;;
21979;SDS011;11154;48.558;9.234;2023-07-20T05:26:54;3.50;;;2.10;;
21979;SDS011;11154;48.558;9.234;2023-07-20T05:28:55;4.47;;;2.17;;
21979;SDS011;11154;48.558;9.234;2023-07-20T05:30:56;4.40;;;2.03;;
21979;SDS011;11154;48.558;9.234;2023-07-20T05:32:59;3.55;;;2.10;;
21979;SDS011;11154;48.558;9.234;2023-07-20T05:35:00;4.50;;;1.98;;
21979;SDS011;11154;48.558;9.234;2023-07-20T05:37:03;7.13;;;1.90;;
21979;SDS011;11154;48.558;9.234;2023-07-20T05:39:05;2.90;;;1.85;;
21979;SDS011;11154;48.558;9.234;2023-07-20T05:41:06;3.58;;;2.00;;
21979;SDS011;11154;48.558;9.234;2023-07-20T05:43:10;2.97;;;1.90;;
21979;SDS011;11154;48.558;9.234;2023-07-20T05:45:12;5.15;;;2.38;;
21979;SDS011;11154;48.558;9.234;2023-07-20T05:47:13;6.32;;;2.47;;
21979;SDS011;11154;48.558;9.234;2023-07-20T05:49:15;5.85;;;1.90;;
21979;SDS011;11154;48.558;9.234;2023-07-20T05:51:16;3.00;;;2.15;;
21979;SDS011;11154;48.558;9.234;2023-07-20T05:53:20;4.50;;;2.08;;
21979;SDS011;11154;48.558;9.234;2023-07-20T05:55:22;3.67;;;1.98;;
21979;SDS011;11154;48.558;9.234;2023-07-20T05:57:22;5.82;;;2.17;;
21979;SDS011;11154;48.558;9.234;2023-07-20T05:59:24;3.97;;;2.03;;
21979;SDS011;11154;48.558;9.234;2023-07-20T06:01:25;3.00;;;2.10;;
21979;SDS011;11154;48.558;9.234;2023-07-20T06:03:28;3.92;;;2.20;;
21979;SDS011;11154;48.558;9.234;2023-07-20T06:05:30;6.38;;;2.40;;
21979;SDS011;11154;48.558;9.234;2023-07-20T06:07:31;3.03;;;2.00;;
21979;SDS011;11154;48.558;9.234;2023-07-20T06:09:34;4.18;;;2.08;;
21979;SDS011;11154;48.558;9.234;2023-07-20T06:11:36;2.92;;;1.90;;
21979;SDS011;11154;48.558;9.234;2023-07-20T06:13:37;4.22;;;2.20;;
21979;SDS011;11154;48.558;9.234;2023-07-20T06:15:39;5.75;;;2.15;;
21979;SDS011;11154;48.558;9.234;2023-07-20T06:17:41;3.63;;;2.10;;
21979;SDS011;11154;48.558;9.234;2023-07-20T06:19:42;4.90;;;2.08;;
21979;SDS011;11154;48.558;9.234;2023-07-20T06:21:44;3.30;;;2.08;;
21979;SDS011;11154;48.558;9.234;2023-07-20T06:23:45;3.35;;;1.88;;
21979;SDS011;11154;48.558;9.234;2023-07-20T06:25:48;5.18;;;2.20;;
21979;SDS011;11154;48.558;9.234;2023-07-20T06:27:50;2.33;;;1.73;;
21979;SDS011;11154;48.558;9.234;2023-07-20T06:29:52;3.88;;;2.08;;
21979;SDS011;11154;48.558;9.234;2023-07-20T06:31:53;4.95;;;2.10;;
21979;SDS011;11154;48.558;9.234;2023-07-20T06:33:55;4.22;;;1.90;;
21979;SDS011;11154;48.558;9.234;2023-07-20T06:35:57;2.85;;;1.90;;
21979;SDS011;11154;48.558;9.234;2023-07-20T06:37:59;4.47;;;2.30;;
21979;SDS011;11154;48.558;9.234;2023-07-20T06:40:01;2.90;;;2.17;;
21979;SDS011;11154;48.558;9.234;2023-07-20T06:42:05;5.53;;;2.22;;
21979;SDS011;11154;48.558;9.234;2023-07-20T06:44:07;5.97;;;2.50;;
21979;SDS011;11154;48.558;9.234;2023-07-20T06:46:08;2.92;;;1.75;;
21979;SDS011;11154;48.558;9.234;2023-07-20T06:48:10;2.80;;;1.80;;
21979;SDS011;11154;48.558;9.234;2023-07-20T06:50:12;3.08;;;1.90;;
21979;SDS011;11154;48.558;9.234;2023-07-20T06:52:14;3.45;;;1.98;;
21979;SDS011;11154;48.558;9.234;2023-07-20T06:54:15;4.32;;;1.98;;
21979;SDS011;11154;48.558;9.234;2023-07-20T06:56:17;4.15;;;2.17;;
21979;SDS011;11154;48.558;9.234;2023-07-20T06:58:19;5.57;;;2.15;;
21979;SDS011;11154;48.558;9.234;2023-07-20T07:00:22;3.13;;;1.85;;
21979;SDS011;11154;48.558;9.234;2023-07-20T07:02:24;3.22;;;1.77;;
21979;SDS011;11154;48.558;9.234;2023-07-20T07:04:25;5.60;;;2.10;;
21979;SDS011;11154;48.558;9.234;2023-07-20T07:06:27;4.75;;;2.10;;
21979;SDS011;11154;48.558;9.234;2023-07-20T07:08:29;5.28;;;1.98;;
21979;SDS011;11154;48.558;9.234;2023-07-20T07:10:31;2.53;;;1.67;;
21979;SDS011;11154;48.558;9.234;2023-07-20T07:12:32;5.40;;;2.17;;
21979;SDS011;11154;48.558;9.234;2023-07-20T07:14:35;5.75;;;2.08;;
21979;SDS011;11154;48.558;9.234;2023-07-20T07:16:37;4.40;;;1.88;;
21979;SDS011;11154;48.558;9.234;2023-07-20T07:18:38;3.92;;;1.73;;
21979;SDS011;11154;48.558;9.234;2023-07-20T07:20:40;3.15;;;1.83;;
21979;SDS011;11154;48.558;9.234;2023-07-20T07:22:42;3.63;;;1.77;;
21979;SDS011;11154;48.558;9.234;2023-07-20T07:24:44;3.83;;;1.70;;
21979;SDS011;11154;48.558;9.234;2023-07-20T07:26:45;4.03;;;2.00;;
21979;SDS011;11154;48.558;9.234;2023-07-20T07:28:47;4.20;;;1.88;;
21979;SDS011;11154;48.558;9.234;2023-07-20T07:30:49;4.35;;;1.70;;
21979;SDS011;11154;48.558;9.234;2023-07-20T07:32:51;2.78;;;1.70;;
21979;SDS011;11154;48.558;9.234;2023-07-20T07:34:52;5.85;;;2.08;;
21979;SDS011;11154;48.558;9.234;2023-07-20T07:36:55;4.75;;;1.77;;
21979;SDS011;11154;48.558;9.234;2023-07-20T07:38:56;3.20;;;1.88;;
21979;SDS011;11154;48.558;9.234;2023-07-20T07:40:58;4.45;;;1.60;;
21979;SDS011;11154;48.558;9.234;2023-07-20T07:43:00;6.20;;;1.70;;
21979;SDS011;11154;48.558;9.234;2023-07-20T07:45:02;3.28;;;1.92;;
21979;SDS011;11154;48.558;9.234;2023-07-20T07:47:05;7.20;;;2.00;;
21979;SDS011;11154;48.558;9.234;2023-07-20T07:49:07;3.22;;;1.95;;
21979;SDS011;11154;48.558;9.234;2023-07-20T07:51:09;5.95;;;1.83;;
21979;SDS011;11154;48.558;9.234;2023-07-20T07:53:10;10.05;;;2.30;;
21979;SDS011;11154;48.558;9.234;2023-07-20T07:55:12;1.63;;;1.50;;
21979;SDS011;11154;48.558;9.234;2023-07-20T07:57:13;3.08;;;1.67;;
21979;SDS011;11154;48.558;9.234;2023-07-20T07:59:15;4.45;;;1.90;;
21979;SDS011;11154;48.558;9.234;2023-07-20T08:01:16;3.13;;;1.92;;
21979;SDS011;11154;48.558;9.234;2023-07-20T08:03:20;4.15;;;2.05;;
21979;SDS011;11154;48.558;9.234;2023-07-20T08:05:21;4.13;;;1.90;;
21979;SDS011;11154;48.558;9.234;2023-07-20T08:07:23;8.07;;;1.90;;
21979;SDS011;11154;48.558;9.234;2023-07-20T08:09:24;3.80;;;2.13;;
21979;SDS011;11154;48.558;9.234;2023-07-20T08:11:26;3.97;;;1.75;;
21979;SDS011;11154;48.558;9.234;2023-07-20T08:13:30;5.60;;;2.00;;
21979;SDS011;11154;48.558;9.234;2023-07-20T08:15:32;4.70;;;2.17;;
21979;SDS011;11154;48.558;9.234;2023-07-20T08:17:34;5.32;;;1.92;;
21979;SDS011;11154;48.558;9.234;2023-07-20T08:19:37;6.53;;;2.20;;
21979;SDS011;11154;48.558;9.234;2023-07-20T08:21:42;4.63;;;2.22;;
21979;SDS011;11154;48.558;9.234;2023-07-20T08:23:43;9.20;;;2.20;;
21979;SDS011;11154;48.558;9.234;2023-07-20T08:25:45;2.72;;;2.15;;
21979;SDS011;11154;48.558;9.234;2023-07-20T08:27:46;3.92;;;1.67;;
21979;SDS011;11154;48.558;9.234;2023-07-20T08:29:48;6.10;;;2.15;;
21979;SDS011;11154;48.558;9.234;2023-07-20T08:31:50;3.97;;;1.92;;
21979;SDS011;11154;48.558;9.234;2023-07-20T08:33:51;6.20;;;2.33;;
21979;SDS011;11154;48.558;9.234;2023-07-20T08:35:54;6.05;;;1.90;;
21979;SDS011;11154;48.558;9.234;2023-07-20T08:37:56;5.50;;;1.70;;
21979;SDS011;11154;48.558;9.234;2023-07-20T08:39:58;5.30;;;2.15;;
21979;SDS011;11154;48.558;9.234;2023-07-20T08:42:00;6.03;;;2.05;;
21979;SDS011;11154;48.558;9.234;2023-07-20T08:44:05;4.82;;;1.85;;
21979;SDS011;11154;48.558;9.234;2023-07-20T08:46:07;3.03;;;1.70;;
21979;SDS011;11154;48.558;9.234;2023-07-20T08:48:09;4.20;;;1.77;;
21979;SDS011;11154;48.558;9.234;2023-07-20T08:50:13;3.35;;;1.80;;
21979;SDS011;11154;48.558;9.234;2023-07-20T08:52:17;4.40;;;1.95;;
21979;SDS011;11154;48.558;9.234;2023-07-20T08:54:18;5.22;;;2.00;;
21979;SDS011;11154;48.558;9.234;2023-07-20T08:56:20;3.97;;;1.70;;
21979;SDS011;11154;48.558;9.234;2023-07-20T08:58:24;2.78;;;1.50;;
21979;SDS011;11154;48.558;9.234;2023-07-20T09:00:28;4.20;;;2.05;;
21979;SDS011;11154;48.558;9.234;2023-07-20T09:02:29;3.35;;;1.63;;
21979;SDS011;11154;48.558;9.234;2023-07-20T09:04:35;3.20;;;1.63;;
21979;SDS011;11154;48.558;9.234;2023-07-20T09:06:36;3.70;;;2.10;;
21979;SDS011;11154;48.558;9.234;2023-07-20T09:08:40;3.38;;;1.60;;
21979;SDS011;11154;48.558;9.234;2023-07-20T09:10:42;2.40;;;1.55;;
21979;SDS011;11154;48.558;9.234;2023-07-20T09:12:44;5.60;;;1.80;;
21979;SDS011;11154;48.558;9.234;2023-07-20T09:14:44;2.33;;;1.85;;
21979;SDS011;11154;48.558;9.234;2023-07-20T09:16:49;4.90;;;1.80;;
21979;SDS011;11154;48.558;9.234;2023-07-20T09:18:51;2.72;;;1.63;;
21979;SDS011;11154;48.558;9.234;2023-07-20T09:20:53;2.17;;;1.50;;
21979;SDS011;11154;48.558;9.234;2023-07-20T09:22:59;2.58;;;1.60;;
21979;SDS011;11154;48.558;9.234;2023-07-20T09:25:08;4.22;;;1.52;;
21979;SDS011;11154;48.558;9.234;2023-07-20T09:27:13;2.83;;;1.48;;
21979;SDS011;11154;48.558;9.234;2023-07-20T09:29:14;4.93;;;1.50;;
21979;SDS011;11154;48.558;9.234;2023-07-20T09:31:20;4.13;;;1.60;;
21979;SDS011;11154;48.558;9.234;2023-07-20T09:33:22;3.75;;;1.67;;
21979;SDS011;11154;48.558;9.234;2023-07-20T09:35:24;2.53;;;1.40;;
21979;SDS011;11154;48.558;9.234;2023-07-20T09:37:25;4.82;;;1.50;;
21979;SDS011;11154;48.558;9.234;2023-07-20T09:39:27;2.95;;;1.63;;
21979;SDS011;11154;48.558;9.234;2023-07-20T09:41:31;4.03;;;1.73;;
21979;SDS011;11154;48.558;9.234;2023-07-20T09:43:40;1.92;;;1.25;;
21979;SDS011;11154;48.558;9.234;2023-07-20T09:45:42;2.78;;;1.63;;
21979;SDS011;11154;48.558;9.234;2023-07-20T09:47:44;2.53;;;1.30;;
21979;SDS011;11154;48.558;9.234;2023-07-20T09:49:45;2.85;;;1.50;;
21979;SDS011;11154;48.558;9.234;2023-07-20T09:51:47;2.50;;;1.90;;
21979;SDS011;11154;48.558;9.234;2023-07-20T09:53:50;3.10;;;1.50;;
21979;SDS011;11154;48.558;9.234;2023-07-20T09:55:54;3.08;;;1.30;;
21979;SDS011;11154;48.558;9.234;2023-07-20T09:57:57;4.35;;;1.60;;
21979;SDS011;11154;48.558;9.234;2023-07-20T10:00:00;3.00;;;1.58;;
21979;SDS011;11154;48.558;9.234;2023-07-20T10:02:07;3.35;;;1.63;;
21979;SDS011;11154;48.558;9.234;2023-07-20T10:04:17;3.30;;;1.60;;
21979;SDS011;11154;48.558;9.234;2023-07-20T10:06:23;2.88;;;1.40;;
21979;SDS011;11154;48.558;9.234;2023-07-20T10:08:25;3.22;;;1.13;;
21979;SDS011;11154;48.558;9.234;2023-07-20T10:10:29;3.15;;;1.48;;
21979;SDS011;11154;48.558;9.234;2023-07-20T10:12:33;3.45;;;1.63;;
21979;SDS011;11154;48.558;9.234;2023-07-20T10:14:38;3.97;;;1.25;;
21979;SDS011;11154;48.558;9.234;2023-07-20T10:16:46;3.42;;;1.50;;
21979;SDS011;11154;48.558;9.234;2023-07-20T10:18:54;4.35;;;1.58;;
21979;SDS011;11154;48.558;9.234;2023-07-20T10:21:03;2.55;;;1.35;;
21979;SDS011;11154;48.558;9.234;2023-07-20T10:23:08;4.32;;;1.42;;
21979;SDS011;11154;48.558;9.234;2023-07-20T10:25:10;2.55;;;1.50;;
21979;SDS011;11154;48.558;9.234;2023-07-20T10:27:14;2.97;;;1.25;;
21979;SDS011;11154;48.558;9.234;2023-07-20T10:29:15;4.25;;;1.42;;
21979;SDS011;11154;48.558;9.234;2023-07-20T10:31:19;5.00;;;1.30;;
21979;SDS011;11154;48.558;9.234;2023-07-20T10:33:22;4.18;;;1.23;;
21979;SDS011;11154;48.558;9.234;2023-07-20T10:35:25;4.10;;;1.42;;
21979;SDS011;11154;48.558;9.234;2023-07-20T10:39:46;2.00;;;1.27;;
21979;SDS011;11154;48.558;9.234;2023-07-20T10:41:48;2.33;;;1.33;;
21979;SDS011;11154;48.558;9.234;2023-07-20T10:43:50;1.90;;;1.50;;
21979;SDS011;11154;48.558;9.234;2023-07-20T10:45:51;1.88;;;1.20;;
21979;SDS011;11154;48.558;9.234;2023-07-20T10:47:55;5.55;;;1.33;;
21979;SDS011;11154;48.558;9.234;2023-07-20T10:49:59;5.80;;;1.67;;
21979;SDS011;11154;48.558;9.234;2023-07-20T10:52:03;3.53;;;1.27;;
21979;SDS011;11154;48.558;9.234;2023-07-20T10:54:07;1.05;;;0.80;;
21979;SDS011;11154;48.558;9.234;2023-07-20T10:56:11;3.53;;;1.10;;
21979;SDS011;11154;48.558;9.234;2023-07-20T10:58:14;6.55;;;1.33;;
21979;SDS011;11154;48.558;9.234;2023-07-20T11:00:19;2.13;;;1.25;;
21979;SDS011;11154;48.558;9.234;2023-07-20T11:02:23;2.92;;;1.20;;
21979;SDS011;11154;48.558;9.234;2023-07-20T11:04:38;5.05;;;1.27;;
21979;SDS011;11154;48.558;9.234;2023-07-20T11:06:42;1.20;;;0.90;;
21979;SDS011;11154;48.558;9.234;2023-07-20T11:08:44;3.15;;;1.27;;
21979;SDS011;11154;48.558;9.234;2023-07-20T11:10:44;2.03;;;1.20;;
21979;SDS011;11154;48.558;9.234;2023-07-20T11:15:18;1.40;;;1.13;;
21979;SDS011;11154;48.558;9.234;2023-07-20T11:17:20;4.47;;;1.15;;
21979;SDS011;11154;48.558;9.234;2023-07-20T11:19:23;3.70;;;1.35;;
21979;SDS011;11154;48.558;9.234;2023-07-20T11:21:27;5.95;;;1.25;;
21979;SDS011;11154;48.558;9.234;2023-07-20T11:23:29;3.10;;;1.25;;
21979;SDS011;11154;48.558;9.234;2023-07-20T11:25:37;3.50;;;1.05;;
21979;SDS011;11154;48.558;9.234;2023-07-20T11:27:43;1.27;;;1.00;;
21979;SDS011;11154;48.558;9.234;2023-07-20T11:29:46;3.65;;;1.13;;
21979;SDS011;11154;48.558;9.234;2023-07-20T11:31:48;6.47;;;1.30;;
21979;SDS011;11154;48.558;9.234;2023-07-20T11:33:49;2.47;;;1.25;;
21979;SDS011;11154;48.558;9.234;2023-07-20T11:35:50;2.33;;;1.08;;
21979;SDS011;11154;48.558;9.234;2023-07-20T11:37:54;1.33;;;1.10;;
21979;SDS011;11154;48.558;9.234;2023-07-20T11:39:56;2.40;;;1.10;;
21979;SDS011;11154;48.558;9.234;2023-07-20T11:41:58;1.92;;;1.30;;
21979;SDS011;11154;48.558;9.234;2023-07-20T11:43:59;1.45;;;1.10;;
21979;SDS011;11154;48.558;9.234;2023-07-20T11:46:01;2.58;;;1.27;;
21979;SDS011;11154;48.558;9.234;2023-07-20T11:48:04;3.15;;;1.20;;
21979;SDS011;11154;48.558;9.234;2023-07-20T11:50:06;2.47;;;1.25;;
21979;SDS011;11154;48.558;9.234;2023-07-20T11:52:10;3.28;;;1.33;;
21979;SDS011;11154;48.558;9.234;2023-07-20T11:54:14;3.00;;;1.40;;
21979;SDS011;11154;48.558;9.234;2023-07-20T11:56:16;2.75;;;1.17;;
21979;SDS011;11154;48.558;9.234;2023-07-20T11:58:17;1.40;;;0.98;;
21979;SDS011;11154;48.558;9.234;2023-07-20T12:00:19;3.22;;;1.30;;
21979;SDS011;11154;48.558;9.234;2023-07-20T12:02:21;5.68;;;1.35;;
21979;SDS011;11154;48.558;9.234;2023-07-20T12:04:22;2.75;;;1.10;;
21979;SDS011;11154;48.558;9.234;2023-07-20T12:06:24;2.28;;;1.13;;
21979;SDS011;11154;48.558;9.234;2023-07-20T12:08:28;2.25;;;1.30;;
21979;SDS011;11154;48.558;9.234;2023-07-20T12:10:31;3.60;;;1.20;;
21979;SDS011;11154;48.558;9.234;2023-07-20T12:12:32;3.05;;;1.45;;
21979;SDS011;11154;48.558;9.234;2023-07-20T12:14:33;1.55;;;1.23;;
21979;SDS011;11154;48.558;9.234;2023-07-20T12:16:35;1.35;;;1.00;;
21979;SDS011;11154;48.558;9.234;2023-07-20T12:18:38;3.33;;;1.20;;
21979;SDS011;11154;48.558;9.234;2023-07-20T12:20:38;2.42;;;1.30;;
21979;SDS011;11154;48.558;9.234;2023-07-20T12:22:40;2.42;;;1.10;;
21979;SDS011;11154;48.558;9.234;2023-07-20T12:24:41;1.85;;;1.13;;